Time;durP1;ratioP1;P1;durP2;ratioP2;P2;SDS_P1;SDS_P2;PMS_P1;PMS_P2;Temp;Humidity;BMP_temperature;BMP_pressure;BME280_temperature;BME280_humidity;BME280_pressure;Samples;Min_cycle;Max_cycle;Signal;HPM_P1;HPM_P2
2022/04/22 00:04:08;;;;;;;;;;;;;;;5.81;87.22;94360.88;10471407;28;1473;-78
2022/04/22 00:09:11;;;;;;;;;;;;;;;5.82;87.53;94354.47;10460997;28;1292;-79
2022/04/22 00:14:15;;;;;;;;;;;;;;;5.76;87.75;94347.56;10480152;28;1971;-80
2022/04/22 00:19:18;;;;;;;;;;;;;;;5.75;87.94;94348.66;10461929;28;1589;-76
2022/04/22 00:24:21;;;;;;;;;;;;;;;5.72;88.24;94343.06;10455016;28;1354;-79
2022/04/22 00:29:25;;;;;;;;;;;;;;;5.59;88.68;94333.81;10476462;28;1594;-81
2022/04/22 00:34:28;;;;;;;;;;;;;;;5.60;89.23;94332.78;10461600;28;1910;-79
2022/04/22 00:39:37;;;;;;;;;;;;;;;5.51;90.15;94329.09;10462806;28;1590;-78
2022/04/22 00:44:41;;;;;;;;;;;;;;;5.48;90.21;94305.66;10453891;28;1666;-79
2022/04/22 00:49:45;;;;;;;;;;;;;;;5.31;91.44;94306.81;10483812;28;1482;-79
2022/04/22 00:54:48;;;;;;;;;;;;;;;5.35;91.17;94302.53;10475804;28;1891;-77
2022/04/22 00:59:52;;;;;;;;;;;;;;;5.38;91.23;94293.97;10477802;28;1577;-79
2022/04/22 01:10:18;;;;;;;;;;;;;;;5.35;91.65;94283.88;10465492;28;1571;-78
2022/04/22 01:15:22;;;;;;;;;;;;;;;5.25;92.28;94275.94;10466851;28;1878;-77
2022/04/22 01:20:26;;;;;;;;;;;;;;;5.28;92.51;94272.75;10469151;28;2178;-77
2022/04/22 01:25:29;;;;;;;;;;;;;;;5.28;92.53;94270.09;10469293;28;1958;-78
2022/04/22 01:30:32;;;;;;;;;;;;;;;5.23;93.40;94256.78;10482623;28;1559;-76
2022/04/22 01:35:37;;;;;;;;;;;;;;;5.20;93.92;94256.53;10478961;28;1963;-78
2022/04/22 01:40:40;;;;;;;;;;;;;;;5.14;94.49;94253.09;10469267;28;2233;-78
2022/04/22 01:45:43;;;;;;;;;;;;;;;5.06;95.03;94245.72;10480462;28;1534;-78
2022/04/22 01:50:50;;;;;;;;;;;;;;;5.04;95.87;94242.53;10468169;28;1467;-77
2022/04/22 01:55:53;;;;;;;;;;;;;;;5.00;96.14;94239.63;10482805;28;1914;-78
2022/04/22 02:00:57;;;;;;;;;;;;;;;4.92;96.83;94239.41;10473715;28;2362;-78
2022/04/22 02:06:01;;;;;;;;;;;;;;;4.83;97.53;94247.94;10467306;28;1342;-81
2022/04/22 02:11:04;;;;;;;;;;;;;;;4.78;98.00;94228.56;10492506;28;1014;-79
2022/04/22 02:16:08;;;;;;;;;;;;;;;4.73;98.59;94226.72;10479986;28;1914;-78
2022/04/22 02:21:11;;;;;;;;;;;;;;;4.64;99.25;94232.88;10476609;28;1470;-77
2022/04/22 02:26:16;;;;;;;;;;;;;;;4.62;99.75;94219.84;10483299;28;1278;-77
2022/04/22 02:31:19;;;;;;;;;;;;;;;4.50;100.00;94216.72;10462870;28;1709;-77
2022/04/22 02:36:23;;;;;;;;;;;;;;;4.50;100.00;94212.19;10468893;28;1914;-77
2022/04/22 02:46:48;;;;;;;;;;;;;;;4.43;100.00;94208.25;10472625;28;1465;-75
2022/04/22 02:51:52;;;;;;;;;;;;;;;4.35;100.00;94204.28;10500801;28;1718;-80
2022/04/22 02:56:55;;;;;;;;;;;;;;;4.29;100.00;94200.84;10484145;28;1902;-79
2022/04/22 03:01:59;;;;;;;;;;;;;;;4.24;100.00;94206.19;10481368;28;1411;-77
2022/04/22 03:07:02;;;;;;;;;;;;;;;4.31;100.00;94189.94;10463702;28;1495;-78
2022/04/22 03:12:08;;;;;;;;;;;;;;;4.19;100.00;94192.91;10485302;28;1256;-76
2022/04/22 03:17:12;;;;;;;;;;;;;;;4.12;100.00;94191.59;10471273;28;1910;-77
2022/04/22 03:22:16;;;;;;;;;;;;;;;4.05;100.00;94184.72;10474622;28;1233;-77
2022/04/22 03:27:20;;;;;;;;;;;;;;;4.06;100.00;94182.84;10489524;28;1500;-78
2022/04/22 03:32:24;;;;;;;;;;;;;;;4.04;100.00;94172.50;10459660;28;1683;-75
2022/04/22 03:37:27;;;;;;;;;;;;;;;3.93;100.00;94165.59;10466122;28;1992;-77
2022/04/22 03:42:32;;;;;;;;;;;;;;;4.07;100.00;94165.81;10483130;28;1506;-78
2022/04/22 03:47:36;;;;;;;;;;;;;;;4.05;100.00;94167.97;10479879;28;1406;-79
2022/04/22 03:52:41;;;;;;;;;;;;;;;3.98;100.00;94152.31;10461816;28;1448;-78
2022/04/22 04:03:21;;;;;;;;;;;;;;;3.95;100.00;94144.09;10281601;28;1408;-79
2022/04/22 04:08:25;;;;;;;;;;;;;;;3.95;100.00;94138.78;10427247;28;1449;-78
2022/04/22 04:18:52;;;;;;;;;;;;;;;3.94;100.00;94142.47;10442606;28;1985;-76
2022/04/22 04:23:56;;;;;;;;;;;;;;;3.96;100.00;94132.38;10465715;28;1550;-79
2022/04/22 04:29:00;;;;;;;;;;;;;;;4.00;100.00;94134.22;10463120;28;1425;-76
2022/04/22 04:34:06;;;;;;;;;;;;;;;4.01;100.00;94143.81;10487955;28;1201;-79
2022/04/22 04:39:09;;;;;;;;;;;;;;;4.14;100.00;94145.06;10458514;28;1894;-78
2022/04/22 04:44:13;;;;;;;;;;;;;;;4.21;100.00;94158.06;10465572;28;1379;-77
2022/04/22 04:49:16;;;;;;;;;;;;;;;4.25;100.00;94151.91;10458534;28;1630;-79
2022/04/22 04:54:20;;;;;;;;;;;;;;;4.23;100.00;94167.38;10459367;28;1975;-78
2022/04/22 04:59:24;;;;;;;;;;;;;;;4.42;100.00;94150.78;10480220;28;1524;-78
2022/04/22 05:04:27;;;;;;;;;;;;;;;4.57;100.00;94150.69;10460816;28;1492;-78
2022/04/22 05:09:31;;;;;;;;;;;;;;;4.61;100.00;94154.41;10469372;28;1667;-78
2022/04/22 05:14:35;;;;;;;;;;;;;;;4.79;100.00;94156.41;10463320;28;1910;-79
2022/04/22 05:19:39;;;;;;;;;;;;;;;4.88;100.00;94157.41;10457496;28;1559;-79
2022/04/22 05:24:42;;;;;;;;;;;;;;;5.01;100.00;94148.00;10486905;28;1410;-79
2022/04/22 05:35:07;;;;;;;;;;;;;;;5.18;99.23;94144.16;10460894;28;1973;-78
2022/04/22 05:40:11;;;;;;;;;;;;;;;5.23;98.95;94139.56;10477857;28;1449;-78
2022/04/22 05:45:14;;;;;;;;;;;;;;;5.70;96.33;94138.84;10478081;28;1322;-77
2022/04/22 05:50:19;;;;;;;;;;;;;;;5.71;95.95;94142.31;10485252;28;1478;-78
2022/04/22 05:55:22;;;;;;;;;;;;;;;5.65;95.29;94132.78;10494384;28;1973;-79
2022/04/22 06:00:25;;;;;;;;;;;;;;;5.57;96.00;94128.06;10468267;28;1450;-78
2022/04/22 06:05:29;;;;;;;;;;;;;;;5.95;94.15;94139.69;10473184;28;1270;-78
2022/04/22 06:10:33;;;;;;;;;;;;;;;5.92;93.07;94141.06;10489139;28;1280;-76
2022/04/22 06:15:36;;;;;;;;;;;;;;;5.83;94.27;94125.94;10470057;28;1906;-80
2022/04/22 06:20:40;;;;;;;;;;;;;;;6.20;92.30;94135.94;10468282;28;1597;-79
2022/04/22 06:25:46;;;;;;;;;;;;;;;6.34;91.32;94136.81;10493794;28;1421;-77
2022/04/22 06:30:49;;;;;;;;;;;;;;;6.34;90.71;94136.81;10474319;28;1454;-77
2022/04/22 06:35:53;;;;;;;;;;;;;;;6.24;90.79;94134.28;10494518;28;1894;-79
2022/04/22 06:46:18;;;;;;;;;;;;;;;6.45;88.39;94138.28;10468757;28;2506;-77
2022/04/22 06:51:23;;;;;;;;;;;;;;;6.77;86.42;94134.91;10474021;28;1509;-77
2022/04/22 06:56:27;;;;;;;;;;;;;;;6.91;84.98;94128.81;10462628;28;1894;-79
2022/04/22 07:01:32;;;;;;;;;;;;;;;7.09;85.06;94116.53;10480678;28;1425;-76
2022/04/22 07:06:47;;;;;;;;;;;;;;;7.48;83.41;94121.47;10459124;28;1388;-78
2022/04/22 07:11:51;;;;;;;;;;;;;;;7.60;80.83;94127.16;10486703;28;1342;-77
2022/04/22 07:16:55;;;;;;;;;;;;;;;7.22;84.23;94121.13;10482385;28;1975;-76
2022/04/22 07:22:00;;;;;;;;;;;;;;;7.73;81.75;94109.53;10482240;28;1175;-77
2022/04/22 07:27:05;;;;;;;;;;;;;;;8.16;79.27;94094.00;10463496;28;1413;-77
2022/04/22 07:32:09;;;;;;;;;;;;;;;8.33;78.42;94094.19;10467140;28;1548;-77
2022/04/22 07:37:12;;;;;;;;;;;;;;;8.16;78.32;94099.34;10470705;28;1976;-78
2022/04/22 07:42:17;;;;;;;;;;;;;;;8.32;79.13;94097.13;10477327;28;1390;-78
2022/04/22 07:47:21;;;;;;;;;;;;;;;8.75;77.05;94092.22;10464942;28;1464;-77
2022/04/22 07:52:24;;;;;;;;;;;;;;;8.56;76.96;94094.25;10470308;28;1183;-77
2022/04/22 07:57:28;;;;;;;;;;;;;;;8.28;77.53;94094.28;10478967;28;1914;-78
2022/04/22 08:02:33;;;;;;;;;;;;;;;8.47;76.43;94088.81;10487945;28;1269;-78
2022/04/22 08:07:36;;;;;;;;;;;;;;;8.51;76.88;94089.00;10472156;28;1433;-77
2022/04/22 08:12:40;;;;;;;;;;;;;;;9.30;72.51;94086.63;10460919;28;1307;-77
2022/04/22 08:17:43;;;;;;;;;;;;;;;9.76;69.98;94082.75;10462516;28;1914;-78
2022/04/22 08:22:47;;;;;;;;;;;;;;;9.57;70.93;94088.34;10463156;28;1455;-81
2022/04/22 08:27:51;;;;;;;;;;;10.90;99.90;;;10.37;67.27;94088.34;10486549;28;1872;-81
2022/04/22 08:32:54;;;;;;;;;;;10.90;99.90;;;10.01;67.72;94100.06;10498590;28;1398;-81
2022/04/22 08:38:00;;;;;;;;;;;11.00;99.90;;;10.23;66.63;94094.63;10490751;28;1957;-81
2022/04/22 08:43:04;;;;;;;;;;;11.00;99.90;;;10.60;65.21;94087.13;10499729;28;1330;-82
2022/04/22 08:53:28;;;;;;;;;;;;;;;10.81;63.81;94087.28;10501673;28;1135;-81
2022/04/22 08:58:34;;;;;;;;;;;;;;;11.16;63.24;94088.09;10465034;28;1985;-81
2022/04/22 09:03:38;;;;;;;;;;;;;;;10.47;65.23;94082.69;10477979;28;1349;-80
2022/04/22 09:08:42;;;;;;;;;;;;;;;11.07;63.10;94079.25;10474943;28;1404;-83
2022/04/22 09:13:45;;;;;;;;;;;;;;;11.40;61.23;94073.34;10506680;28;1132;-83
2022/04/22 09:18:49;;;;;;;;;;;;;;;10.75;63.19;94085.88;10483163;28;1961;-81
2022/04/22 09:23:53;;;;;;;;;;;;;;;11.06;61.36;94089.19;10473902;28;1288;-80
2022/04/22 09:28:57;;;;;;;;;;;;;;;11.20;62.28;94077.50;10488494;28;1385;-83
2022/04/22 09:34:02;;;;;;;;;;;;;;;10.99;62.34;94080.03;10487296;28;1376;-82
2022/04/22 09:44:31;;;;;;;;;;;;;;;11.50;61.38;94064.94;10459239;28;1340;-79
2022/04/22 09:49:37;;;;;;;;;;;;;;;10.99;63.22;94072.75;10508001;28;1492;-83
2022/04/22 09:54:41;;;;;;;;;;;;;;;11.62;61.33;94056.97;10510577;28;1246;-82
2022/04/22 10:00:09;;;;;;;;;;;;;;;11.38;61.37;94058.28;10483536;28;1963;-82
2022/04/22 10:05:13;;;;;;;;;;;;;;;11.66;61.09;94057.94;10495605;28;1405;-81
2022/04/22 10:10:17;;;;;;;;;;;;;;;11.85;60.35;94063.75;10471951;28;1591;-81
2022/04/22 10:15:21;;;;;;;;;;;;;;;11.37;60.58;94070.16;10495373;28;1287;-82
2022/04/22 10:20:25;;;;;;;;;;;;;;;11.15;61.98;94058.84;10515097;28;1960;-83
2022/04/22 10:25:29;;;;;;;;;;;;;;;11.83;60.20;94055.22;10510041;28;1411;-83
2022/04/22 10:30:35;;;;;;;;;;;;;;;11.69;59.73;94056.47;10532055;28;1327;-82
2022/04/22 10:35:41;;;;;;;;;;;;;;;11.66;59.87;94057.94;10525468;28;1957;-83
2022/04/22 10:40:45;;;;;;;;;;;;;;;12.14;58.23;94057.59;10503355;28;1341;-82
2022/04/22 10:51:22;;;;;;;;;;;;;;;11.74;59.75;94059.78;10392832;28;1391;-72
2022/04/22 10:56:26;;;;;;;;;;;;;;;11.72;60.31;94062.03;10475316;28;1918;-72
2022/04/22 11:01:31;;;;;;;;;;;;;;;12.04;59.94;94063.34;10487384;22;1709;-73
2022/04/22 11:06:34;;;;;;;;;;;;;;;11.82;60.21;94060.91;10477079;28;1404;-73
2022/04/22 11:11:39;;;;;;;;;;;;;;;12.10;59.61;94058.56;10479449;28;1286;-72
2022/04/22 11:16:42;;;;;;;;;;;;;;;11.80;60.62;94053.13;10473745;28;1984;-72
2022/04/22 11:21:47;;;;;;;;;;;;;;;12.37;58.28;94058.09;10477934;28;1401;-72
2022/04/22 11:26:52;;;;;;;;;;;;;;;12.83;56.11;94056.34;10455333;28;1326;-72
2022/04/22 11:31:54;;;;;;;;;;;13.70;99.90;;;13.17;54.71;94060.69;10473805;28;1449;-72
2022/04/22 11:36:57;;;;;;;;;;;13.90;99.90;;;12.90;56.04;94059.31;10472368;28;1910;-72
2022/04/22 11:42:01;;;;;;;;;;;13.90;99.90;;;12.88;56.37;94064.25;10476572;28;1279;-73
2022/04/22 11:47:04;;;;;;;;;;;13.90;99.90;;;13.22;55.62;94062.41;10476986;28;1445;-72
2022/04/22 11:52:07;;;;;;;;;;;14.10;99.90;;;13.39;55.32;94054.16;10468569;28;1360;-72
2022/04/22 11:57:11;;;;;;;;;;;;;;;13.71;53.55;94054.47;10471828;28;1973;-73
2022/04/22 12:12:56;;;;;;;;;;;;;;;13.69;53.98;94059.41;10458432;28;1324;-72
2022/04/22 12:17:59;;;;;;;;;;;;;;;14.08;52.19;94049.91;10471620;28;1973;-73
2022/04/22 12:23:03;;;;;;;;;;;;;;;13.64;52.91;94056.94;10470316;28;1351;-71
2022/04/22 12:28:08;;;;;;;;;;;;;;;13.82;52.54;94057.53;10468607;28;1354;-72
2022/04/22 12:33:11;;;;;;;;;;;;;;;13.71;53.32;94051.75;10464158;28;1350;-71
2022/04/22 12:38:15;;;;;;;;;;;;;;;13.68;53.51;94058.63;10470583;28;1923;-74
2022/04/22 12:43:18;;;;;;;;;;;;;;;13.68;53.85;94052.44;10476888;28;1300;-72
2022/04/22 12:53:42;;;;;;;;;;;;;;;14.22;52.63;94047.63;10459612;28;1342;-73
2022/04/22 12:58:46;;;;;;;;;;;;;;;13.91;53.38;94050.09;10481616;28;1914;-72
2022/04/22 13:03:49;;;;;;;;;;;;;;;14.48;52.33;94055.41;10472229;28;1443;-72
2022/04/22 13:08:52;;;;;;;;;;;15.40;99.90;;;14.89;52.01;94042.75;10477428;28;1494;-73
2022/04/22 13:13:55;;;;;;;;;;;15.80;99.90;;;15.03;51.69;94053.97;10463196;28;1365;-72
2022/04/22 13:18:58;;;;;;;;;;;15.90;99.90;;;14.99;51.84;94050.38;10471650;28;1983;-71
2022/04/22 13:24:02;;;;;;;;;;;15.90;99.90;;;15.16;51.18;94051.22;10471274;28;1323;-73
2022/04/22 13:29:05;;;;;;;;;;;15.90;99.90;;;14.98;52.10;94037.97;10470017;28;1319;-72
2022/04/22 13:34:08;;;;;;;;;;;16.00;99.90;;;14.85;52.22;94039.91;10472243;28;1250;-71
2022/04/22 13:39:11;;;;;;;;;;;15.90;99.90;;;14.38;53.74;94053.16;10465430;28;1891;-72
2022/04/22 13:52:20;;;;;;;;;;;15.60;99.90;;;14.51;53.95;94046.66;10471554;28;1487;-73
2022/04/22 13:54:58;;;;;;;;;;;15.70;99.90;;;14.63;52.77;94036.91;10455554;28;1236;-72
2022/04/22 14:00:01;;;;;;;;;;;15.90;99.90;;;14.88;53.20;94051.97;10467341;28;1922;-73
2022/04/22 14:05:04;;;;;;;;;;;15.80;99.90;;;14.91;52.79;94051.28;10478530;28;1433;-73
2022/04/22 14:10:07;;;;;;;;;;;15.90;99.90;;;14.74;52.58;94043.44;10495261;28;1386;-74
2022/04/22 14:15:11;;;;;;;;;;;15.90;99.90;;;14.68;52.58;94051.00;10521239;28;1232;-74
2022/04/22 14:20:14;;;;;;;;;;;15.80;99.90;;;15.03;51.65;94051.25;10525271;28;1922;-74
2022/04/22 14:25:18;;;;;;;;;;;;;;;15.47;50.93;94054.03;10520389;28;1303;-72
2022/04/22 14:30:21;;;;;;;;;;;16.30;99.90;;;15.64;50.42;94055.63;10478725;28;1367;-72
2022/04/22 14:35:25;;;;;;;;;;;;;;;15.11;51.55;94066.56;10478386;28;1319;-72
2022/04/22 14:40:28;;;;;;;;;;;16.30;99.90;;;14.90;53.08;94065.97;10463757;28;1989;-71
2022/04/22 14:45:31;;;;;;;;;;;16.10;99.90;;;15.66;51.61;94056.88;10458908;28;1514;-72
2022/04/22 14:50:34;;;;;;;;;;;16.30;99.90;;;15.25;51.90;94068.88;10452973;28;1384;-72
2022/04/22 14:55:38;;;;;;;;;;;16.50;99.90;;;14.99;53.56;94072.00;10452342;28;1444;-72
2022/04/22 15:00:41;;;;;;;;;;;16.10;99.90;;;15.76;52.11;94073.75;10476643;28;1993;-71
2022/04/22 15:05:46;;;;;;;;;;;16.40;99.90;;;14.86;53.31;94081.28;10475230;28;1303;-72
2022/04/22 15:10:49;;;;;;;;;;;16.40;99.90;;;14.64;55.13;94079.88;10464130;28;1832;-74
2022/04/22 15:15:53;;;;;;;;;;;15.90;99.90;;;14.41;55.98;94084.13;10516394;28;1476;-74
2022/04/22 15:26:35;;;;;;;;;;;15.40;99.90;;;14.70;54.18;94100.16;10503570;28;1322;-71
2022/04/22 15:31:44;;;;;;;;;;;15.40;99.90;;;15.65;52.15;94097.88;10454325;28;1371;-71
2022/04/22 15:36:46;;;;;;;;;;;16.00;99.90;;;15.92;51.32;94082.69;10452829;28;1383;-71
2022/04/22 15:41:50;;;;;;;;;;;;;;;15.14;54.12;94095.66;10475221;28;1970;-72
2022/04/22 15:46:53;;;;;;;;;;;;;;;14.47;56.43;94099.81;10475685;28;1421;-73
2022/04/22 15:51:57;;;;;;;;;;;;;;;14.30;56.76;94097.28;10461622;28;1443;-74
2022/04/22 15:57:00;;;;;;;;;;;;;;;14.17;56.60;94093.78;10476292;28;1910;-72
2022/04/22 16:02:06;;;;;;;;;;;;;;;14.15;56.40;94096.06;10492129;28;1656;-76
2022/04/22 16:07:09;;;;;;;;;;;;;;;14.05;57.37;94097.28;10495638;28;1299;-74
2022/04/22 16:17:34;;;;;;;;;;;;;;;14.34;57.25;94093.59;10456955;28;1918;-72
2022/04/22 16:22:37;;;;;;;;;;;;;;;14.46;56.55;94094.72;10458570;28;1414;-71
2022/04/22 16:27:41;;;;;;;;;;;;;;;14.54;55.96;94100.03;10469002;28;1389;-71
2022/04/22 16:32:44;;;;;;;;;;;;;;;14.49;55.41;94102.94;10471858;28;1323;-71
2022/04/22 16:37:47;;;;;;;;;;;;;;;14.67;55.32;94097.31;10468601;28;1969;-71
2022/04/22 16:42:51;;;;;;;;;;;;;;;14.41;56.40;94101.13;10464964;28;1806;-71
2022/04/22 16:47:59;;;;;;;;;;;;;;;14.33;56.41;94108.22;10457258;28;1385;-71
2022/04/22 16:53:02;;;;;;;;;;;;;;;14.24;57.30;94112.16;10469547;28;1644;-72
2022/04/22 16:58:05;;;;;;;;;;;;;;;14.06;58.00;94106.97;10455242;28;1906;-72
2022/04/22 17:03:22;;;;;;;;;;;;;;;13.80;58.60;94117.25;10478829;22;1664;-80
2022/04/22 17:08:28;;;;;;;;;;;;;;;13.62;59.73;94113.97;10464160;28;1323;-82
2022/04/22 17:13:33;;;;;;;;;;;;;;;13.71;59.57;94124.66;10484631;28;1236;-80
2022/04/22 17:24:12;;;;;;;;;;;;;;;13.34;65.79;94129.91;10469353;28;1527;-82
2022/04/22 17:29:24;;;;;;;;;;;;;;;13.32;66.63;94140.25;10467143;28;1530;-81
2022/04/22 17:34:29;;;;;;;;;;;;;;;13.01;69.07;94132.53;10459702;28;1458;-83
2022/04/22 17:39:34;;;;;;;;;;;;;;;12.87;69.11;94142.78;10471026;28;1952;-80
2022/04/22 17:44:37;;;;;;;;;;;;;;;12.71;71.16;94150.66;10460993;28;2315;-81
2022/04/22 17:49:42;;;;;;;;;;;;;;;12.51;72.64;94154.09;10479848;28;2519;-81
2022/04/22 17:54:48;;;;;;;;;;;;;;;12.28;73.86;94154.38;10490802;28;1752;-80
2022/04/22 17:59:57;;;;;;;;;;;;;;;12.11;75.46;94165.97;10461151;28;2029;-79
2022/04/22 18:05:03;;;;;;;;;;;;;;;11.89;77.14;94175.06;10465497;28;1634;-79
2022/04/22 18:10:07;;;;;;;;;;;;;;;11.72;79.69;94175.06;10486229;28;1479;-81
2022/04/22 18:20:35;;;;;;;;;;;12.50;99.90;;;11.24;86.21;94192.19;10489099;28;1894;-79
2022/04/22 18:25:40;;;;;;;;;;;12.50;99.90;;;11.04;87.38;94198.19;10471378;28;1441;-80
2022/04/22 18:30:43;;;;;;;;;;;12.00;99.90;;;10.85;89.12;94194.97;10487679;28;1479;-80
2022/04/22 18:35:46;;;;;;;;;;;12.10;99.90;;;10.70;90.54;94205.06;10470858;28;1503;-78
2022/04/22 18:40:49;;;;;;;;;;;11.90;99.90;;;10.54;91.64;94215.44;10473987;28;1993;-83
2022/04/22 18:45:52;;;;;;;;;;;11.80;99.90;;;10.38;93.17;94232.31;10474316;28;1631;-81
2022/04/22 18:50:56;;;;;;;;;;;11.70;99.90;;;10.23;94.74;94236.94;10465417;28;2289;-82
2022/04/22 18:55:59;;;;;;;;;;;11.40;99.90;;;10.06;96.28;94249.50;10474939;28;1693;-80
2022/04/22 19:01:02;;;;;;;;;;;11.10;99.90;;;9.91;97.75;94248.75;10471287;28;1989;-80
2022/04/22 19:06:06;;;;;;;;;;;11.10;99.90;;;9.77;98.96;94263.34;10472388;28;1799;-82
2022/04/22 19:11:10;;;;;;;;;;;10.80;99.90;;;9.62;99.91;94254.56;10457268;28;1901;-81
2022/04/22 19:16:14;;;;;;;;;;;10.70;99.90;;;9.45;100.00;94259.78;10475209;28;1907;-81
2022/04/22 19:21:21;;;;;;;;;;;10.50;99.90;;;9.34;100.00;94269.94;10471005;28;1887;-84
2022/04/22 19:26:26;;;;;;;;;;;10.40;99.90;;;9.21;100.00;94270.75;10482910;28;1579;-80
2022/04/22 19:31:30;;;;;;;;;;;10.40;99.90;;;9.08;100.00;94275.03;10486047;28;1665;-81
2022/04/22 19:41:55;;;;;;;;;;;10.00;99.90;;;8.79;100.00;94275.38;10480296;28;1913;-84
2022/04/22 19:46:59;;;;;;;;;;;;;;;8.59;100.00;94279.25;10496225;28;1812;-87
2022/04/22 19:52:04;;;;;;;;;;;9.70;99.90;;;8.49;100.00;94279.44;10496408;28;1790;-86
2022/04/22 19:57:13;;;;;;;;;;;9.60;99.90;;;8.38;100.00;94288.75;10499532;28;1462;-85
2022/04/22 20:02:17;;;;;;;;;;;9.40;99.90;;;8.32;100.00;94298.72;10466395;28;1895;-86
2022/04/22 20:07:21;;;;;;;;;;;9.30;99.90;;;8.38;100.00;94305.59;10472105;28;2012;-85
2022/04/22 20:12:25;;;;;;;;;;;9.30;99.90;;;8.52;100.00;94310.97;10473731;28;1791;-86
2022/04/22 20:17:29;;;;;;;;;;;9.40;99.90;;;8.63;100.00;94319.63;10485756;28;1552;-85
2022/04/22 20:22:32;;;;;;;;;;;9.50;99.90;;;8.71;100.00;94318.91;10466499;28;1890;-84
2022/04/22 20:27:41;;;;;;;;;;;9.60;99.90;;;8.81;100.00;94324.09;10452009;28;1849;-80
2022/04/22 20:32:52;;;;;;;;;;;9.70;99.90;;;8.89;100.00;94325.28;10463615;28;1623;-82
2022/04/22 20:43:22;;;;;;;;;;;9.70;99.90;;;8.74;100.00;94336.31;10465390;28;1854;-83
2022/04/22 20:48:27;;;;;;;;;;;9.70;99.90;;;8.69;100.00;94341.75;10453461;28;1855;-85
2022/04/22 20:53:49;;;;;;;;;;;9.60;99.90;;;8.69;100.00;94347.13;10460347;28;1794;-83
2022/04/22 20:58:59;;;;;;;;;;;9.60;99.90;;;8.65;100.00;94345.03;10464802;28;1886;-84
2022/04/22 21:04:02;;;;;;;;;;;9.60;99.90;;;8.62;100.00;94356.31;10477173;28;1794;-84
2022/04/22 21:09:06;;;;;;;;;;;9.50;99.90;;;8.62;100.00;94350.19;10473593;28;2030;-85
2022/04/22 21:14:10;;;;;;;;;;;9.60;99.90;;;8.57;100.00;94353.72;10486357;28;1700;-85
2022/04/22 21:19:13;;;;;;;;;;;9.50;99.90;;;8.53;100.00;94355.44;10495546;22;3401;-71
2022/04/22 21:24:17;;;;;;;;;;;9.40;99.90;;;8.57;100.00;94360.97;10408941;28;1918;-71
2022/04/22 21:29:20;;;;;;;;;;;9.50;99.90;;;8.49;100.00;94370.50;10413834;28;1939;-72
2022/04/22 21:34:23;;;;;;;;;;;9.50;99.90;;;8.27;100.00;94357.72;10423752;28;1919;-71
2022/04/22 21:39:26;;;;;;;;;;;9.30;99.90;;;8.32;100.00;94360.28;10406943;28;1981;-70
2022/04/22 21:44:29;;;;;;;;;;;9.20;99.90;;;8.25;100.00;94361.75;10410156;28;1808;-71
2022/04/22 21:49:31;;;;;;;;;;;9.20;99.90;;;8.17;100.00;94367.78;10421021;28;1728;-70
2022/04/22 21:54:37;;;;;;;;;;;9.10;99.90;;;8.22;100.00;94370.41;10397243;28;1765;-70
2022/04/22 21:59:41;;;;;;;;;;;9.10;99.90;;;8.26;100.00;94374.84;10429435;28;1915;-68
2022/04/22 22:04:45;;;;;;;;;;;9.20;99.90;;;7.99;100.00;94380.09;10423313;28;1883;-69
2022/04/22 22:09:48;;;;;;;;;;;9.10;99.90;;;8.06;100.00;94375.97;10424475;28;1850;-71
2022/04/22 22:14:51;;;;;;;;;;;9.00;99.90;;;7.98;100.00;94375.84;10421674;28;1788;-69
2022/04/22 22:19:54;;;;;;;;;;;8.80;99.90;;;7.74;100.00;94391.97;10427984;28;1971;-70
2022/04/22 22:24:57;;;;;;;;;;;8.80;99.90;;;7.64;100.00;94392.13;10420897;28;1871;-70
2022/04/22 22:30:00;;;;;;;;;;;;;;;7.69;100.00;94395.50;10409278;28;1835;-72
2022/04/22 22:35:03;;;;;;;;;;;8.60;99.90;;;7.64;100.00;94392.13;10407827;28;1828;-71
2022/04/22 22:40:07;;;;;;;;;;;8.60;99.90;;;7.70;100.00;94396.28;10420792;28;1894;-72
2022/04/22 22:45:09;;;;;;;;;;;8.70;99.90;;;7.61;100.00;94392.69;10436372;28;1693;-73
2022/04/22 22:50:12;;;;;;;;;;;8.60;99.90;;;7.65;100.00;94393.72;10412311;28;1726;-70
2022/04/22 22:55:16;;;;;;;;;;;8.60;99.90;;;7.54;100.00;94393.06;10400897;28;1823;-71
2022/04/22 23:00:19;;;;;;;;;;;8.60;99.90;;;7.37;100.00;94388.19;10405853;28;1902;-70
2022/04/22 23:05:22;;;;;;;;;;;8.50;99.90;;;7.34;100.00;94390.63;10421239;28;1855;-70
2022/04/22 23:10:25;;;;;;;;;;;8.40;99.90;;;7.37;100.00;94396.19;10400394;28;1837;-70
2022/04/22 23:15:28;;;;;;;;;;;;;;;7.22;100.00;94402.53;10409469;28;1820;-70
2022/04/22 23:20:32;;;;;;;;;;;8.20;99.90;;;7.36;100.00;94402.63;10423005;28;1922;-70
2022/04/22 23:25:37;;;;;;;;;;;;;;;7.45;100.00;94406.28;10404257;28;2065;-70
2022/04/22 23:30:40;;;;;;;;;;;8.30;99.90;;;7.47;100.00;94398.75;10405076;28;1764;-70
2022/04/22 23:35:43;;;;;;;;;;;8.40;99.90;;;7.41;100.00;94383.06;10398775;28;1797;-69
2022/04/22 23:40:46;;;;;;;;;;;8.40;99.90;;;7.25;100.00;94379.78;10405063;28;1910;-69
2022/04/22 23:45:50;;;;;;;;;;;8.30;99.90;;;7.36;100.00;94364.41;10405253;28;1918;-72
2022/04/22 23:50:53;;;;;;;;;;;8.30;99.90;;;7.17;100.00;94378.53;10403516;28;1942;-71
2022/04/22 23:55:57;;;;;;;;;;;8.30;99.90;;;7.22;100.00;94367.78;10403696;28;2058;-70
